Weather History for KGWB - December, 2012

Change the Weather History Date:

Thursday, December 20, 2012

  Actual Average (KFWA) Record (KFWA)
Temperature  
Mean Temperature 41 °F 28 °F  
Max Temperature 50 °F 35 °F 60 °F (1949)
Min Temperature 32 °F 21 °F -10 °F (1963)
Degree Days  
Heating Degree Days 24 37  
Month to date heating degree days 687  
Since 1 July heating degree days 1904  
Cooling Degree Days 0 0  
Month to date cooling degree days 0  
Year to date cooling degree days 809  
Moisture  
Dew Point 37 °F    
Average Humidity 88    
Maximum Humidity 100    
Minimum Humidity 75    
Precipitation  
Precipitation 0.55 in 0.09 in 0.76 in (2012)
Month to date precipitation 1.80  
Year to date precipitation 37.37  
Snow  
Snow 0.00 in 0.30 in 6.50 in (1960)
Month to date snowfall 5.0  
Since 1 July snowfall 7.1  
Snow Depth -    
Sea Level Pressure  
Sea Level Pressure 29.46 in    
Wind  
Wind Speed 12 mph (SE)    
Max Wind Speed 18 mph    
Max Gust Speed 34 mph    
Visibility 6 miles    
Events Rain , Snow    
T = Trace of Precipitation, MM = Missing Value Source: NWS Daily Summary

Daily Weather History Graph

Daily Weather History Graph

Search for Another Location

Airport or City:

Trip Planner

Search our weather history database for the weather conditions in past years. The results will help you decide how hot, cold, wet, or windy it might be!

Date:

Astronomy

Dec. 20, 2012 Rise Set
Actual Time 8:02 AM EST 5:13 PM EST
Civil Twilight 7:31 AM EST 5:45 PM EST
Nautical Twilight 6:56 AM EST 6:20 PM EST
Astronomical Twilight 6:22 AM EST 6:53 PM EST
Moon 12:34 PM EST (12/20) 12:45 AM EST (12/20)
Length of Visible Light 10h 14m
Length of Day
9h 11m
First Quarter, 55% of the Moon is Illuminated
Dec 20
First Quarter
Dec 28
Full
Jan 4
Last Quarter
Jan 11
New
Jan 18
First Quarter

Hourly Weather History & Observations

Time (EST) Temp. Windchill Dew Point Humidity Pressure Visibility Wind Dir Wind Speed Gust Speed Precip Events Conditions
12:15 AM 37.4 °F 29.3 °F 33.8 °F 87% 29.96 in 7.0 mi East 12.7 mph 16.1 mph N/A   Overcast
12:35 AM 37.4 °F 30.3 °F 33.8 °F 87% 29.95 in 7.0 mi East 10.4 mph - N/A   Overcast
12:55 AM 37.4 °F 32.1 °F 32.0 °F 81% 29.99 in 7.0 mi East 6.9 mph - N/A   Overcast
1:15 AM 37.4 °F 31.4 °F 32.0 °F 81% 29.97 in 7.0 mi East 8.1 mph - N/A   Overcast
1:35 AM 37.4 °F 29.3 °F 33.8 °F 87% 29.93 in 7.0 mi East 12.7 mph - N/A Rain Light Rain
1:55 AM 37.4 °F 29.3 °F 33.8 °F 87% 29.90 in 5.0 mi East 12.7 mph - N/A Rain Light Rain
2:15 AM 37.4 °F 29.8 °F 33.8 °F 87% 29.90 in 7.0 mi East 11.5 mph 17.3 mph N/A   Overcast
2:35 AM 37.4 °F 28.5 °F 33.8 °F 87% 29.86 in 5.0 mi East 15.0 mph 20.7 mph N/A   Light Drizzle
2:55 AM 37.4 °F 28.9 °F 33.8 °F 87% 29.84 in 5.0 mi East 13.8 mph - N/A   Overcast
3:15 AM 37.4 °F 29.3 °F 33.8 °F 87% 29.81 in 5.0 mi East 12.7 mph 24.2 mph N/A   Overcast
3:35 AM 39.2 °F 31.6 °F 33.8 °F 81% 29.81 in 5.0 mi East 12.7 mph 24.2 mph N/A   Light Drizzle
3:55 AM 39.2 °F 32.0 °F 35.6 °F 87% 29.82 in 4.0 mi ESE 11.5 mph 20.7 mph N/A Rain Rain
4:15 AM 39.2 °F 31.6 °F 35.6 °F 87% 29.80 in 4.0 mi East 12.7 mph 19.6 mph 0.02 in Rain Light Rain
4:35 AM 39.2 °F 30.8 °F 35.6 °F 87% 29.78 in 4.0 mi East 15.0 mph - 0.02 in Rain Light Rain
4:55 AM 39.2 °F 33.6 °F 35.6 °F 87% 29.77 in 4.0 mi ESE 8.1 mph 17.3 mph 0.03 in Rain Light Rain
5:15 AM 39.2 °F 31.6 °F 35.6 °F 87% 29.74 in 5.0 mi East 12.7 mph 17.3 mph 0.01 in   Light Drizzle
5:35 AM 39.2 °F 31.6 °F 35.6 °F 87% 29.73 in 5.0 mi East 12.7 mph 17.3 mph 0.01 in   Overcast
5:55 AM 39.2 °F 32.0 °F 35.6 °F 87% 29.72 in 5.0 mi East 11.5 mph 19.6 mph 0.01 in   Overcast
6:15 AM 39.2 °F 32.5 °F 35.6 °F 87% 29.72 in 5.0 mi ESE 10.4 mph 17.3 mph N/A Rain Rain
6:35 AM 39.2 °F 30.8 °F 35.6 °F 87% 29.68 in 5.0 mi East 15.0 mph 20.7 mph N/A Rain Light Rain
6:55 AM 39.2 °F 30.5 °F 35.6 °F 87% 29.65 in 7.0 mi East 16.1 mph 20.7 mph N/A   Overcast
7:15 AM 39.2 °F 30.2 °F 35.6 °F 87% 29.63 in 5.0 mi East 17.3 mph 20.7 mph N/A   Light Drizzle
7:35 AM 39.2 °F 31.2 °F 35.6 °F 87% 29.64 in 7.0 mi East 13.8 mph 17.3 mph N/A Rain Light Rain
7:55 AM 39.2 °F 31.6 °F 35.6 °F 87% 29.62 in 5.0 mi East 12.7 mph - N/A Rain Light Rain
8:15 AM 39.2 °F 30.5 °F 35.6 °F 87% 29.57 in 4.0 mi East 16.1 mph 21.9 mph 0.01 in Rain Rain
8:35 AM 37.4 °F 28.5 °F 35.6 °F 93% 29.56 in 4.0 mi East 15.0 mph 23.0 mph 0.05 in Rain Light Rain
8:55 AM 37.4 °F 29.3 °F 35.6 °F 93% 29.54 in 3.0 mi East 12.7 mph 21.9 mph 0.10 in Rain Rain
9:15 AM 37.4 °F 28.2 °F 35.6 °F 93% 29.54 in 4.0 mi East 16.1 mph 24.2 mph 0.04 in Rain Light Rain
9:35 AM 39.2 °F 32.5 °F 35.6 °F 87% 29.55 in 2.0 mi East 10.4 mph 18.4 mph 0.12 in Rain Heavy Rain
9:55 AM 39.2 °F 32.0 °F 35.6 °F 87% 29.53 in 1.5 mi East 11.5 mph - 0.21 in Rain Rain
10:15 AM 39.2 °F 33.0 °F 35.6 °F 87% 29.52 in 2.5 mi East 9.2 mph 16.1 mph 0.03 in Rain Rain
10:35 AM 39.2 °F 33.6 °F 37.4 °F 93% 29.51 in 2.5 mi ESE 8.1 mph 16.1 mph 0.07 in Rain Rain
10:55 AM 39.2 °F 31.6 °F 37.4 °F 93% 29.46 in 2.5 mi East 12.7 mph - 0.09 in Rain Light Rain
11:15 AM 41.0 °F 35.2 °F 37.4 °F 87% 29.48 in 3.0 mi SE 9.2 mph - N/A Rain Light Rain
11:35 AM 41.0 °F 33.5 °F 39.2 °F 93% 29.42 in 2.5 mi East 13.8 mph 18.4 mph 0.01 in Rain Light Rain
11:55 AM 42.8 °F 37.5 °F 41.0 °F 93% 29.37 in 3.0 mi East 9.2 mph 17.3 mph 0.01 in Rain Rain
12:15 PM 44.6 °F 37.8 °F 42.8 °F 93% 29.30 in 4.0 mi East 15.0 mph 23.0 mph N/A Rain Light Rain
12:35 PM 44.6 °F 38.4 °F 42.8 °F 93% 29.29 in 7.0 mi ESE 12.7 mph 20.7 mph N/A   Overcast
12:55 PM 46.4 °F 41.5 °F 44.6 °F 93% 29.27 in 10.0 mi ESE 10.4 mph 19.6 mph N/A   Overcast
1:15 PM 46.4 °F 41.5 °F 44.6 °F 93% 29.23 in 10.0 mi SE 10.4 mph 24.2 mph N/A   Overcast
1:35 PM 46.4 °F 42.4 °F 44.6 °F 93% 29.24 in 10.0 mi SE 8.1 mph - N/A   Overcast
1:55 PM 48.2 °F - 44.6 °F 87% 29.23 in 10.0 mi SSE 9.2 mph - N/A   Overcast
2:15 PM 48.2 °F - 44.6 °F 87% 29.21 in 7.0 mi SSE 9.2 mph 20.7 mph N/A Rain Light Rain
2:35 PM 50.0 °F - 44.6 °F 82% 29.20 in 10.0 mi SSE 8.1 mph 20.7 mph N/A   Overcast
2:55 PM 48.2 °F - 44.6 °F 87% 29.19 in 5.0 mi SSE 8.1 mph 16.1 mph N/A   Light Drizzle
3:15 PM 50.0 °F - 44.6 °F 82% 29.18 in 10.0 mi SSE 11.5 mph 21.9 mph N/A   Overcast
3:35 PM 50.0 °F - 46.4 °F 87% 29.17 in 10.0 mi SSE 8.1 mph - N/A   Overcast
3:55 PM 50.0 °F - 44.6 °F 82% 29.15 in 10.0 mi SSE 6.9 mph - N/A   Overcast
4:15 PM 50.0 °F - 44.6 °F 82% 29.13 in 10.0 mi SSE 4.6 mph 17.3 mph N/A Rain Light Rain
4:35 PM 48.2 °F - 42.8 °F 82% 29.15 in 5.0 mi SSW 15.0 mph 26.5 mph 0.08 in Rain Rain
4:55 PM 46.4 °F 42.4 °F 42.8 °F 87% 29.14 in 10.0 mi SSW 8.1 mph - 0.08 in Rain Light Rain
5:15 PM 46.4 °F 40.7 °F 41.0 °F 81% 29.15 in 7.0 mi SW 12.7 mph 19.6 mph 0.01 in Rain Light Rain
5:35 PM 44.6 °F 36.9 °F 39.2 °F 81% 29.18 in 5.0 mi SW 18.4 mph 32.2 mph 0.02 in Rain Light Rain
5:55 PM 42.8 °F 35.8 °F 37.4 °F 81% 29.18 in 10.0 mi SW 13.8 mph 21.9 mph 0.02 in   Drizzle
6:15 PM 42.8 °F 35.8 °F 37.4 °F 81% 29.19 in 10.0 mi SW 13.8 mph 24.2 mph N/A   Light Drizzle
6:35 PM 39.2 °F 30.8 °F 33.8 °F 81% 29.21 in 7.0 mi SW 15.0 mph 29.9 mph N/A   Light Drizzle
6:55 PM 37.4 °F 27.8 °F 32.0 °F 81% 29.20 in 7.0 mi SW 17.3 mph 31.1 mph N/A   Light Drizzle
7:15 PM 37.4 °F 27.5 °F 30.2 °F 75% 29.20 in 10.0 mi SSW 18.4 mph 34.5 mph N/A   Overcast
8:15 PM 35.6 °F 25.2 °F 30.2 °F 81% 29.20 in 10.0 mi SSW 18.4 mph 26.5 mph N/A   Mostly Cloudy
8:35 PM 33.8 °F 23.9 °F 32.0 °F 93% 29.21 in 3.0 mi SSW 15.0 mph 26.5 mph N/A Snow Light Snow
8:55 PM 33.8 °F 25.3 °F 30.2 °F 87% 29.21 in 10.0 mi SSW 11.5 mph 20.7 mph N/A   Overcast
9:15 PM 33.8 °F 25.8 °F 30.2 °F 87% 29.20 in 10.0 mi SSW 10.4 mph 18.4 mph N/A   Overcast
9:35 PM 33.8 °F 24.8 °F 30.2 °F 87% 29.19 in 7.0 mi South 12.7 mph 20.7 mph N/A Snow Light Snow
9:55 PM 33.8 °F 25.8 °F 30.2 °F 87% 29.19 in 2.5 mi SSW 10.4 mph 18.4 mph N/A Snow Light Snow
10:15 PM 32.0 °F 23.6 °F 32.0 °F 100% 29.19 in 2.0 mi SSW 10.4 mph - N/A Snow Light Snow
10:35 PM 32.0 °F 24.2 °F 32.0 °F 100% 29.19 in 4.0 mi SSW 9.2 mph - N/A Snow Light Snow
10:55 PM 32.0 °F 25.6 °F 32.0 °F 100% 29.18 in 1.8 mi SSW 6.9 mph - N/A Snow Light Snow
11:15 PM 32.0 °F 27.5 °F 32.0 °F 100% 29.18 in 5.0 mi SW 4.6 mph - N/A   Overcast
11:35 PM 32.0 °F 26.4 °F 32.0 °F 100% 29.18 in 10.0 mi SW 5.8 mph - N/A   Overcast
11:55 PM 33.8 °F 27.7 °F 32.0 °F 93% 29.18 in 10.0 mi SW 6.9 mph - N/A   Overcast